Time;durP1;ratioP1;P1;durP2;ratioP2;P2;SDS_P1;SDS_P2;PMS_P1;PMS_P2;Temp;Humidity;BMP_temperature;BMP_pressure;BME280_temperature;BME280_humidity;BME280_pressure;Samples;Min_cycle;Max_cycle;Signal;HPM_P1;HPM_P2
2021/11/01 00:02:15;;;;;;;893.17;834.50;;;21.80;96.70;;;20.98;100.00;100918.69;5009253;28;20475;-66
2021/11/01 00:04:49;;;;;;;888.40;830.05;;;21.80;96.70;;;20.97;100.00;100906.13;5009243;28;20850;-68
2021/11/01 00:07:18;;;;;;;889.75;830.47;;;21.80;96.70;;;20.99;100.00;100912.03;5009128;28;20425;-66
2021/11/01 00:09:46;;;;;;;892.70;833.90;;;21.80;96.70;;;20.96;100.00;100896.25;5008174;28;20483;-69
2021/11/01 00:12:14;;;;;;;888.95;829.38;;;21.80;96.70;;;20.95;100.00;100902.91;5009324;28;20899;-66
2021/11/01 00:14:43;;;;;;;889.55;830.50;;;21.80;96.80;;;20.96;100.00;100899.00;5009532;28;20942;-69
2021/11/01 00:17:11;;;;;;;883.72;825.05;;;21.80;96.70;;;20.97;100.00;100906.13;5009911;28;20806;-68
2021/11/01 00:19:44;;;;;;;888.95;829.97;;;21.80;96.70;;;20.97;100.00;100900.63;5008173;28;20425;-69
2021/11/01 00:22:14;;;;;;;889.08;830.28;;;21.80;96.70;;;20.98;100.00;100899.44;5009594;28;20525;-67
2021/11/01 00:24:50;;;;;;;890.60;831.75;;;21.80;96.60;;;20.96;100.00;100893.50;5009150;28;20436;-68
2021/11/01 00:27:22;;;;;;;887.17;828.73;;;21.80;96.60;;;20.96;100.00;100896.25;5009521;28;20417;-67
2021/11/01 00:29:50;;;;;;;888.10;828.78;;;21.80;96.70;;;20.95;100.00;100894.66;5008360;28;20423;-66
2021/11/01 00:32:18;;;;;;;884.22;825.85;;;21.80;96.70;;;20.96;100.00;100893.50;5009443;28;20778;-66
2021/11/01 00:34:49;;;;;;;890.58;831.90;;;21.80;96.70;;;20.96;100.00;100888.81;5009379;28;20825;-67
2021/11/01 00:37:18;;;;;;;890.42;832.13;;;21.80;96.70;;;20.96;100.00;100893.50;5009281;28;20495;-66
2021/11/01 00:39:47;;;;;;;894.00;835.50;;;21.80;96.60;;;20.96;100.00;100882.53;5008418;28;20420;-67
2021/11/01 00:42:15;;;;;;;889.08;830.63;;;21.80;96.60;;;20.96;100.00;100886.06;5011556;28;20413;-65
2021/11/01 00:44:43;;;;;;;887.92;829.13;;;21.80;96.60;;;20.97;100.00;100892.38;5011476;28;20425;-67
2021/11/01 00:47:13;;;;;;;894.97;835.67;;;21.80;96.60;;;20.97;100.00;100881.38;5012298;28;20478;-68
2021/11/01 00:49:41;;;;;;;891.03;832.60;;;21.80;96.60;;;20.96;100.00;100885.28;5011611;28;20526;-70
2021/11/01 00:52:12;;;;;;;886.38;827.22;;;21.80;96.60;;;20.94;100.00;100877.41;5012548;28;20423;-68
2021/11/01 00:54:43;;;;;;;887.92;828.92;;;21.80;96.60;;;20.93;100.00;100873.03;5012675;28;20409;-67
2021/11/01 00:57:15;;;;;;;888.63;829.95;;;21.80;96.60;;;20.93;100.00;100875.00;5012782;28;20425;-67
2021/11/01 00:59:45;;;;;;;887.35;828.55;;;21.80;96.60;;;20.92;100.00;100876.13;5011719;28;20416;-68
2021/11/01 01:02:13;;;;;;;889.15;829.70;;;21.80;96.60;;;20.89;100.00;100866.66;5012200;28;20451;-67
2021/11/01 01:04:41;;;;;;;891.53;831.40;;;21.80;96.60;;;20.89;100.00;100866.66;5012319;28;20432;-66
2021/11/01 01:07:10;;;;;;;889.03;829.95;;;21.70;96.60;;;20.90;100.00;100868.25;5012263;28;20879;-69
2021/11/01 01:09:38;;;;;;;887.03;827.77;;;21.80;96.60;;;20.89;100.00;100861.16;5011771;28;20826;-67
2021/11/01 01:12:12;;;;;;;880.38;822.38;;;21.70;96.60;;;20.90;100.00;100850.97;5012242;28;20409;-67
2021/11/01 01:14:45;;;;;;;884.83;826.92;;;21.70;96.60;;;20.89;100.00;100850.16;5012040;28;20436;-67
2021/11/01 01:17:13;;;;;;;883.88;824.92;;;21.70;96.60;;;20.90;100.00;100850.97;5012297;28;20640;-66
2021/11/01 01:19:50;;;;;;;885.83;827.13;;;21.70;96.60;;;20.91;100.00;100852.56;5011341;28;20428;-70
2021/11/01 01:22:28;;;;;;;885.40;827.05;;;21.80;96.70;;;20.91;100.00;100847.88;5012060;28;20895;-67
2021/11/01 01:25:09;;;;;;;884.35;825.70;;;21.80;96.70;;;20.92;100.00;100848.66;5010790;28;20432;-66
2021/11/01 01:27:39;;;;;;;882.27;824.07;;;21.70;96.60;;;20.90;100.00;100838.03;5009585;28;20452;-65
2021/11/01 01:30:10;;;;;;;889.00;830.55;;;21.80;96.70;;;20.91;100.00;100836.88;5011247;28;20435;-68
2021/11/01 01:32:38;;;;;;;884.08;824.67;;;21.80;96.60;;;20.92;100.00;100843.16;5011689;28;20424;-66
2021/11/01 01:35:08;;;;;;;885.03;826.45;;;21.80;96.70;;;20.92;100.00;100838.44;5012050;28;20515;-68
2021/11/01 01:37:37;;;;;;;887.72;829.95;;;21.80;96.60;;;20.92;100.00;100837.66;5012133;28;20424;-68
2021/11/01 01:40:09;;;;;;;884.95;826.70;;;21.80;96.70;;;20.89;100.00;100833.66;5010889;28;20416;-66
2021/11/01 01:42:39;;;;;;;879.72;820.75;;;21.70;96.60;;;20.88;100.00;100831.31;5011886;28;20478;-66
2021/11/01 01:45:12;;;;;;;882.22;822.63;;;21.70;96.70;;;20.89;100.00;100827.38;5011952;28;20432;-66
2021/11/01 01:47:41;;;;;;;880.20;822.05;;;21.70;96.80;;;20.89;100.00;100828.19;5011768;28;20413;-65
2021/11/01 01:50:12;;;;;;;882.15;823.53;;;21.70;96.70;;;20.89;100.00;100828.19;5010653;28;20421;-65
2021/11/01 01:52:42;;;;;;;881.10;821.28;;;21.70;96.70;;;20.89;100.00;100824.63;5011052;28;20471;-65
2021/11/01 01:55:13;;;;;;;880.28;822.17;;;21.70;96.70;;;20.88;100.00;100820.31;5011814;28;20539;-68
2021/11/01 01:57:43;;;;;;;881.72;823.08;;;21.70;96.70;;;20.88;100.00;100820.31;5011865;28;20413;-67
2021/11/01 02:00:24;;;;;;;882.40;824.15;;;21.70;96.70;;;20.89;100.00;100811.69;5010801;28;20508;-71
2021/11/01 02:02:52;;;;;;;876.25;818.33;;;21.70;96.70;;;20.87;100.00;100813.19;5011278;28;20486;-63
2021/11/01 02:05:21;;;;;;;883.63;824.03;;;21.70;96.70;;;20.87;100.00;100813.19;5011380;28;20428;-68
2021/11/01 02:07:54;;;;;;;876.35;817.85;;;21.70;96.80;;;20.89;100.00;100822.69;5011551;28;20439;-65
2021/11/01 02:10:29;;;;;;;881.78;822.75;;;21.70;96.80;;;20.87;100.00;100813.19;5010578;28;20412;-66
2021/11/01 02:13:04;;;;;;;882.03;823.08;;;21.70;96.80;;;20.87;100.00;100811.25;5011176;28;20443;-67
2021/11/01 02:15:39;;;;;;;878.95;821.17;;;21.70;96.70;;;20.87;100.00;100810.47;5011150;28;20512;-69
2021/11/01 02:18:09;;;;;;;880.45;821.67;;;21.70;96.80;;;20.87;100.00;100804.97;5011389;28;20525;-69
2021/11/01 02:20:46;;;;;;;879.70;821.20;;;21.70;96.80;;;20.86;100.00;100811.59;5010365;28;20475;-66
2021/11/01 02:23:23;;;;;;;880.10;821.65;;;21.70;96.80;;;20.87;100.00;100802.22;5011134;28;20490;-66
2021/11/01 02:25:57;;;;;;;874.60;816.60;;;21.70;96.80;;;20.86;100.00;100804.16;5011029;28;20488;-68
2021/11/01 02:28:30;;;;;;;880.50;820.85;;;21.70;96.80;;;20.85;100.00;100799.84;5010823;28;20423;-66
2021/11/01 02:31:00;;;;;;;882.92;824.63;;;21.70;96.80;;;20.87;100.00;100802.22;5010866;28;20480;-67
2021/11/01 02:33:29;;;;;;;881.00;822.10;;;21.70;96.80;;;20.85;100.00;100796.28;5010879;28;20471;-66
2021/11/01 02:35:58;;;;;;;880.22;821.40;;;21.70;96.80;;;20.85;100.00;100796.28;5010754;28;20443;-66
2021/11/01 02:38:31;;;;;;;879.58;821.38;;;21.70;96.80;;;20.84;100.00;100797.44;5010610;28;20479;-67
2021/11/01 02:41:18;;;;;;;871.08;813.03;;;21.60;96.80;;;20.81;100.00;100798.94;5010745;28;20434;-65
2021/11/01 02:43:51;;;;;;;878.43;819.63;;;21.60;96.80;;;20.83;100.00;100796.63;5010757;28;20422;-67
2021/11/01 02:46:20;;;;;;;879.22;820.60;;;21.60;96.80;;;20.84;100.00;100791.94;5010778;28;20416;-68
2021/11/01 02:48:48;;;;;;;885.30;825.92;;;21.60;96.80;;;20.84;100.00;100794.69;5009899;28;20420;-67
2021/11/01 02:51:18;;;;;;;874.87;816.97;;;21.60;96.80;;;20.81;100.00;100787.97;5010729;28;20506;-66
2021/11/01 02:53:47;;;;;;;876.78;818.20;;;21.60;96.80;;;20.79;100.00;100787.53;5010491;28;20416;-68
2021/11/01 02:56:18;;;;;;;879.05;820.65;;;21.60;96.90;;;20.81;100.00;100790.72;5010630;28;20425;-68
2021/11/01 02:58:46;;;;;;;884.03;825.15;;;21.60;96.80;;;20.82;100.00;100791.50;5009825;28;20424;-68
2021/11/01 03:01:17;;;;;;;878.10;820.38;;;21.60;96.90;;;20.82;100.00;100791.50;5010263;28;20914;-69
2021/11/01 03:03:46;;;;;;;881.67;823.03;;;21.60;96.90;;;20.83;100.00;100790.34;5009949;28;20417;-66
2021/11/01 03:06:21;;;;;;;880.38;821.15;;;21.60;96.80;;;20.81;100.00;100798.16;5010686;28;20455;-68
2021/11/01 03:08:51;;;;;;;881.10;822.60;;;21.60;96.90;;;20.81;100.00;100771.47;5009727;28;20432;-67
2021/11/01 03:11:23;;;;;;;876.83;818.75;;;21.60;96.90;;;20.81;100.00;100776.16;5010232;28;20919;-66
2021/11/01 03:13:51;;;;;;;879.63;820.78;;;21.60;96.90;;;20.83;100.00;100779.34;5010282;28;20783;-68
2021/11/01 03:16:21;;;;;;;878.25;820.10;;;21.60;96.90;;;20.83;100.00;100774.63;5010334;28;20425;-66
2021/11/01 03:19:08;;;;;;;881.63;822.85;;;21.70;96.90;;;20.84;100.00;100776.25;5009835;28;20457;-64
2021/11/01 03:21:43;;;;;;;885.15;826.20;;;21.70;97.00;;;20.87;100.00;100775.53;5010141;28;20950;-70
2021/11/01 03:24:13;;;;;;;882.40;823.43;;;21.70;96.90;;;20.86;100.00;100762.13;5010009;28;20468;-67
2021/11/01 03:26:45;;;;;;;883.37;825.30;;;21.70;96.90;;;20.87;100.00;100763.72;5010251;28;20925;-66
2021/11/01 03:29:16;;;;;;;878.05;819.13;;;21.60;96.90;;;20.84;100.00;100758.94;5009535;28;20439;-67
2021/11/01 03:31:45;;;;;;;882.80;823.22;;;21.70;96.90;;;20.85;100.00;100766.06;5010117;28;20483;-68
2021/11/01 03:34:14;;;;;;;882.80;822.40;;;21.60;96.90;;;20.83;100.00;100768.34;5009943;28;20458;-70
2021/11/01 03:36:42;;;;;;;882.58;824.00;;;21.60;96.90;;;20.81;100.00;100770.66;5009997;28;20409;-68
2021/11/01 03:39:13;;;;;;;882.25;823.35;;;21.60;96.90;;;20.80;100.00;100771.81;5009333;28;20471;-67
2021/11/01 03:41:44;;;;;;;882.67;824.57;;;21.60;97.00;;;20.83;100.00;100773.84;5010203;28;20428;-68
2021/11/01 03:44:17;;;;;;;878.43;820.33;;;21.60;97.00;;;20.83;100.00;100776.59;5010150;28;20432;-69
2021/11/01 03:46:51;;;;;;;878.95;819.92;;;21.70;97.00;;;20.83;100.00;100762.84;5010166;28;20503;-69
2021/11/01 03:49:20;;;;;;;880.60;821.15;;;21.70;97.00;;;20.84;100.00;100769.94;5009116;28;20431;-67
2021/11/01 03:51:50;;;;;;;882.47;824.25;;;21.70;97.00;;;20.83;100.00;100763.66;5010117;28;20418;-70
2021/11/01 03:54:26;;;;;;;883.63;825.53;;;21.60;96.90;;;20.84;100.00;100772.69;5010034;28;20510;-68
2021/11/01 03:56:57;;;;;;;874.42;816.63;;;21.70;97.00;;;20.84;100.00;100765.25;5010048;28;20482;-65
2021/11/01 03:59:27;;;;;;;879.28;820.65;;;21.70;97.00;;;20.82;100.00;100766.78;5008944;28;20416;-67
2021/11/01 04:01:56;;;;;;;882.88;824.80;;;21.70;96.90;;;20.83;100.00;100762.84;5009686;28;20423;-66
2021/11/01 04:04:24;;;;;;;883.53;825.28;;;21.70;96.90;;;20.81;100.00;100770.66;5009895;28;20812;-69
2021/11/01 04:06:52;;;;;;;882.13;823.47;;;21.60;96.90;;;20.79;100.00;100754.56;5009884;28;20420;-69
2021/11/01 04:09:23;;;;;;;884.25;826.00;;;21.60;96.90;;;20.80;100.00;100761.63;5009172;28;20417;-67
2021/11/01 04:11:51;;;;;;;888.15;829.45;;;21.60;96.80;;;20.80;100.00;100766.31;5009570;28;20413;-69
2021/11/01 04:14:23;;;;;;;885.15;826.97;;;21.60;96.90;;;20.81;100.00;100763.22;5009557;28;21047;-67
2021/11/01 04:16:56;;;;;;;886.92;828.25;;;21.60;96.90;;;20.79;100.00;100762.00;5013270;28;20420;-68
2021/11/01 04:19:45;;;;;;;882.78;824.63;;;21.60;96.80;;;20.77;100.00;100753.28;5012602;28;20945;-67
2021/11/01 04:22:13;;;;;;;881.90;823.47;;;21.60;96.80;;;20.78;100.00;100763.94;5013266;28;20938;-69
2021/11/01 04:24:42;;;;;;;884.15;825.42;;;21.60;96.90;;;20.77;100.00;100762.34;5013141;28;20432;-68
2021/11/01 04:27:10;;;;;;;886.72;827.63;;;21.60;96.90;;;20.77;100.00;100764.28;5013379;28;20440;-67
2021/11/01 04:29:39;;;;;;;885.88;827.00;;;21.60;96.90;;;20.80;100.00;100766.31;5012518;28;20413;-71
2021/11/01 04:32:15;;;;;;;882.92;824.85;;;21.60;96.90;;;20.81;100.00;100763.22;5013041;28;20413;-70
2021/11/01 04:34:47;;;;;;;879.05;821.08;;;21.60;96.80;;;20.80;100.00;100767.13;5012925;28;20410;-71
2021/11/01 04:37:15;;;;;;;890.42;831.88;;;21.60;96.80;;;20.79;100.00;100764.75;5012905;28;20412;-69
2021/11/01 04:39:55;;;;;;;889.83;831.17;;;21.60;96.80;;;20.78;100.00;100761.19;5012421;28;20779;-66
2021/11/01 04:53:26;;;;;;;883.63;825.63;;;21.60;96.90;;;20.77;100.00;100769.78;5012691;28;20416;-69
2021/11/01 04:55:55;;;;;;;887.30;829.38;;;21.60;96.90;;;20.77;100.00;100767.03;5012666;28;20879;-69
2021/11/01 04:58:24;;;;;;;885.17;827.20;;;21.60;96.90;;;20.76;100.00;100766.25;5012657;28;20848;-70
2021/11/01 05:00:54;;;;;;;885.97;827.58;;;21.60;96.90;;;20.75;100.00;100766.59;5012263;28;20432;-67
2021/11/01 05:03:32;;;;;;;881.60;823.33;;;21.60;96.90;;;20.74;100.00;100754.81;5012771;28;20834;-67
2021/11/01 05:06:00;;;;;;;881.05;823.63;;;21.60;96.90;;;20.74;100.00;100760.31;5012318;28;20433;-65
2021/11/01 05:08:35;;;;;;;881.25;822.90;;;21.60;96.90;;;20.73;100.00;100757.94;5012185;28;20448;-69
2021/11/01 05:11:11;;;;;;;878.70;820.67;;;21.60;96.80;;;20.73;100.00;100764.22;5012437;28;20420;-68
2021/11/01 05:13:39;;;;;;;885.88;826.70;;;21.60;96.80;;;20.73;100.00;100763.44;5012366;28;20421;-68
2021/11/01 05:16:14;;;;;;;884.93;827.10;;;21.60;96.80;;;20.70;100.00;100762.97;5012509;28;20417;-68
2021/11/01 05:18:47;;;;;;;883.72;825.80;;;21.60;96.80;;;20.71;100.00;100772.03;5011503;28;20409;-65
2021/11/01 05:21:28;;;;;;;884.88;827.50;;;21.50;96.90;;;20.71;100.00;100761.03;5012185;28;20436;-66
2021/11/01 05:24:01;;;;;;;884.35;826.78;;;21.50;96.90;;;20.68;100.00;100767.25;5012460;28;20413;-65
2021/11/01 05:26:37;;;;;;;883.25;825.65;;;21.50;96.90;;;20.66;100.00;100767.63;5011677;28;20425;-68
2021/11/01 05:29:07;;;;;;;882.07;824.27;;;21.50;96.90;;;20.65;100.00;100760.50;5011144;28;20424;-65
2021/11/01 05:31:45;;;;;;;875.58;817.80;;;21.40;96.90;;;20.64;100.00;100761.66;5011959;28;20417;-67
2021/11/01 05:34:15;;;;;;;879.85;821.50;;;21.50;96.90;;;20.65;100.00;100763.25;5012185;28;20493;-68
2021/11/01 05:36:43;;;;;;;876.97;819.22;;;21.50;96.90;;;20.66;100.00;100762.13;5012151;28;20412;-69
2021/11/01 05:39:11;;;;;;;878.75;821.42;;;21.50;96.90;;;20.67;100.00;100768.41;5011233;28;20484;-67
2021/11/01 05:41:40;;;;;;;882.83;825.58;;;21.50;97.00;;;20.67;100.00;100760.94;5011611;28;20502;-65
2021/11/01 05:44:09;;;;;;;884.40;826.00;;;21.50;96.90;;;20.67;100.00;100752.69;5011826;28;20412;-64
2021/11/01 05:46:43;;;;;;;881.63;823.75;;;21.50;96.90;;;20.68;100.00;100762.53;5011796;28;20463;-65
2021/11/01 05:49:12;;;;;;;877.07;818.30;;;21.50;97.00;;;20.69;100.00;100764.16;5011252;28;20405;-66
2021/11/01 05:51:40;;;;;;;882.03;823.30;;;21.50;97.00;;;20.70;100.00;100760.22;5011550;28;20433;-68
2021/11/01 05:54:11;;;;;;;884.50;825.70;;;21.50;97.00;;;20.73;100.00;100762.25;5011459;28;20420;-66
2021/11/01 05:56:47;;;;;;;885.85;826.67;;;21.50;97.00;;;20.76;100.00;100762.72;5011694;28;20420;-67
2021/11/01 06:05:10;;;;;;;886.08;827.17;;;21.60;97.00;;;20.73;100.00;100756.00;4987092;28;20425;-68
2021/11/01 06:07:49;;;;;;;877.45;819.00;;;21.60;97.00;;;20.72;100.00;100757.13;5011554;28;20905;-67
2021/11/01 06:10:35;;;;;;;879.58;821.00;;;21.50;97.00;;;20.71;100.00;100766.53;5010662;28;20736;-66
2021/11/01 06:15:48;;;;;;;886.92;828.13;;;21.50;97.20;;;20.73;100.00;100757.94;5011598;28;20931;-64
2021/11/01 06:18:18;;;;;;;882.80;824.77;;;21.60;97.00;;;20.73;100.00;100769.72;5011098;28;20775;-66
2021/11/01 06:20:46;;;;;;;891.08;832.55;;;21.60;97.00;;;20.75;100.00;100761.09;5010643;28;20475;-64
2021/11/01 06:23:15;;;;;;;888.15;830.03;;;21.60;97.00;;;20.74;100.00;100760.31;5010977;28;20416;-68
2021/11/01 06:25:44;;;;;;;887.88;829.83;;;21.60;97.00;;;20.74;100.00;100757.56;5011261;28;20453;-66
2021/11/01 06:28:14;;;;;;;885.72;827.97;;;21.60;97.00;;;20.74;100.00;100760.31;5011174;28;20804;-65
2021/11/01 06:30:46;;;;;;;881.67;823.15;;;21.60;97.00;;;20.73;100.00;100761.47;5010463;28;20879;-68
2021/11/01 06:33:37;;;;;;;883.03;824.67;;;21.60;97.00;;;20.70;100.00;100753.97;5010938;28;20420;-68
2021/11/01 06:41:49;;;;;;;885.33;827.28;;;21.50;97.00;;;20.67;100.00;100755.44;5010751;28;20403;-69
2021/11/01 06:44:26;;;;;;;881.40;823.70;;;21.50;97.00;;;20.67;100.00;100760.94;5010578;28;20838;-70
2021/11/01 06:49:50;;;;;;;882.17;824.17;;;21.50;97.00;;;20.65;100.00;100756.97;5010090;28;20397;-69
2021/11/01 06:57:59;;;;;;;883.80;827.73;;;21.50;97.00;;;20.62;100.00;100763.97;5010879;28;20404;-67
2021/11/01 07:14:37;;;;;;;877.10;820.78;;;21.40;97.10;;;20.50;100.00;100793.50;5010309;28;20455;-71
2021/11/01 07:17:08;;;;;;;879.00;822.05;;;21.40;97.10;;;20.48;100.00;100796.63;5010206;28;20961;-66
2021/11/01 07:19:55;;;;;;;877.55;819.75;;;21.40;97.10;;;20.46;100.00;100798.13;5009407;28;20435;-65
2021/11/01 08:20:39;;;;;;;897.00;819.17;;;21.50;97.10;;;20.62;100.00;100834.63;5013306;28;20435;-68
2021/11/01 08:21:04;;;;;;;900.75;819.60;;;21.50;97.10;;;20.62;100.00;100842.84;5012607;28;20404;-72
2021/11/01 08:26:38;;;;;;;884.70;822.40;;;21.50;97.10;;;20.60;100.00;100843.22;5013025;28;20420;-70
2021/11/01 08:40:42;;;;;;;884.42;824.88;;;21.30;97.00;;;20.51;100.00;100858.28;5012247;28;20802;-66
2021/11/01 08:46:15;;;;;;;873.63;817.78;;;21.40;97.10;;;20.51;100.00;100861.84;5012927;28;20420;-69
2021/11/01 09:02:52;;;;;;;875.17;818.63;;;21.30;97.00;;;20.46;100.00;100891.50;4998411;28;20431;-68
2021/11/01 09:20:03;;;;;;;876.95;820.70;;;21.60;96.70;;;20.79;100.00;100904.91;5080166;28;20430;-67
2021/11/01 09:22:54;;;;;;;879.28;823.05;;;21.60;96.60;;;20.70;100.00;100919.59;5065053;28;20412;-69
2021/11/01 09:25:28;;;;;;;878.72;822.55;;;21.50;96.50;;;20.59;100.00;100913.06;5066586;28;20492;-67
2021/11/01 09:28:08;;;;;;;884.27;828.37;;;21.50;96.40;;;20.53;100.00;100922.72;5066651;28;20448;-67
2021/11/01 09:36:26;;;;;;;877.50;821.47;;;21.40;96.50;;;20.60;100.00;100927.59;5066764;28;20812;-68
2021/11/01 09:39:03;;;;;;;876.67;821.17;;;21.50;96.60;;;20.63;100.00;100929.63;5065372;28;20519;-69
2021/11/01 09:41:32;;;;;;;872.85;817.30;;;21.40;96.40;;;20.76;100.00;100933.09;5066244;28;20787;-69
2021/11/01 09:44:00;;;;;;;873.53;817.35;;;21.60;96.70;;;20.85;100.00;100925.47;5066256;28;20848;-66
2021/11/01 09:46:30;;;;;;;877.80;822.08;;;21.60;96.50;;;20.92;100.00;100928.38;5066323;28;20467;-68
2021/11/01 09:51:41;;;;;;;886.88;831.03;;;21.80;96.30;;;21.11;100.00;100925.72;5062034;28;20474;-66
2021/11/01 09:54:19;;;;;;;888.05;832.33;;;21.90;96.30;;;21.08;100.00;100923.66;5065746;28;20432;-65
2021/11/01 09:56:58;;;;;;;896.75;840.90;;;21.90;96.00;;;21.17;100.00;100922.34;5066237;28;20835;-65
2021/11/01 09:59:33;;;;;;;892.03;836.78;;;22.00;96.20;;;21.28;100.00;100928.06;5064979;28;20424;-66
2021/11/01 10:02:06;;;;;;;887.90;832.63;;;22.10;95.90;;;21.31;100.00;100924.59;5065695;28;20424;-68
2021/11/01 10:04:36;;;;;;;893.90;838.55;;;22.10;95.90;;;21.27;100.00;100920.19;5065990;28;20478;-67
2021/11/01 10:07:21;;;;;;;901.80;846.28;;;22.10;95.60;;;21.30;100.00;100931.25;5066157;28;20412;-66
2021/11/01 10:09:55;;;;;;;895.28;840.30;;;22.10;95.70;;;21.44;100.00;100934.31;5064645;28;20404;-69
2021/11/01 10:12:31;;;;;;;898.65;843.35;;;22.30;95.90;;;21.55;100.00;100929.84;5070147;28;20450;-68
2021/11/01 10:18:00;;;;;;;915.90;859.83;;;22.40;95.60;;;21.81;100.00;100931.97;5085314;28;20399;-68
2021/11/01 10:20:29;;;;;;;917.60;861.75;;;22.60;95.40;;;21.94;100.00;100927.94;5084803;28;20411;-67
2021/11/01 10:23:02;;;;;;;934.40;877.80;;;22.70;95.30;;;22.16;100.00;100932.66;5085857;28;20607;-66
2021/11/01 10:25:30;;;;;;;936.45;880.20;;;22.80;95.30;;;22.15;100.00;100933.06;5073465;28;20419;-67
2021/11/01 10:27:59;;;;;;;938.63;881.75;;;22.90;94.50;;;22.05;100.00;100939.94;5072353;28;20423;-68
2021/11/01 10:30:30;;;;;;;934.30;878.10;;;22.80;94.60;;;21.99;100.00;100946.09;5071298;28;20455;-68
2021/11/01 10:33:07;;;;;;;928.47;873.00;;;22.80;94.40;;;21.97;100.00;100951.19;5072018;28;20428;-64
2021/11/01 10:35:43;;;;;;;937.83;881.80;;;22.80;94.50;;;21.95;100.00;100948.78;5071987;28;20416;-68
2021/11/01 10:38:24;;;;;;;929.35;874.15;;;22.80;94.60;;;22.05;100.00;100942.69;5072305;28;20407;-67
2021/11/01 10:41:11;;;;;;;935.20;879.40;;;22.90;94.50;;;22.23;100.00;100940.28;5071979;28;20407;-65
2021/11/01 10:43:58;;;;;;;946.27;889.97;;;23.00;94.50;;;22.55;100.00;100927.88;5072110;28;20912;-69
2021/11/01 11:12:16;;;;;;;966.50;909.85;;;24.00;91.70;;;23.23;100.00;100900.22;5071263;28;20430;-68
2021/11/01 11:14:51;;;;;;;958.17;902.22;;;23.90;91.50;;;23.16;100.00;100902.09;5070677;28;20434;-68
2021/11/01 11:17:33;;;;;;;960.22;904.05;;;23.90;91.90;;;23.02;100.00;100899.91;5070916;28;20420;-66
2021/11/01 11:23:55;;;;;;;964.45;907.85;;;23.90;92.00;;;23.07;100.00;100899.56;5070368;28;20404;-67
2021/11/01 11:29:25;;;;;;;961.28;904.83;;;23.80;91.50;;;23.25;100.00;100894.34;5061476;28;20408;-65
2021/11/01 11:49:15;;;;;;;966.50;909.55;;;24.00;90.70;;;23.24;100.00;100881.69;5070425;28;20738;-64
2021/11/01 11:51:57;;;;;;;961.22;904.95;;;24.10;90.60;;;23.20;100.00;100878.09;5070849;28;20414;-66
2021/11/01 11:54:40;;;;;;;962.22;905.55;;;23.90;90.50;;;23.38;100.00;100876.34;5070375;28;20460;-65
2021/11/01 11:57:23;;;;;;;962.78;906.55;;;24.10;90.70;;;23.34;100.00;100870.00;5070809;28;20412;-65
2021/11/01 11:59:59;;;;;;;964.77;908.50;;;24.10;90.20;;;23.35;100.00;100868.81;5069955;28;20407;-67
2021/11/01 12:02:38;;;;;;;968.97;912.53;;;24.10;90.50;;;23.36;100.00;100862.16;5070648;28;20507;-68
2021/11/01 12:05:11;;;;;;;970.17;913.65;;;24.10;90.00;;;23.28;100.00;100872.31;5070344;28;20443;-69
2021/11/01 12:07:46;;;;;;;972.15;915.30;;;24.10;90.30;;;23.25;100.00;100859.25;5070532;28;20412;-64
2021/11/01 12:10:39;;;;;;;969.90;913.35;;;24.00;90.70;;;23.32;100.00;100862.09;5069767;28;20416;-68
2021/11/01 12:13:27;;;;;;;971.20;914.55;;;24.10;90.40;;;23.49;100.00;100854.47;5069831;28;20442;-65
2021/11/01 12:18:53;;;;;;;976.10;919.22;;;24.20;90.20;;;23.40;100.00;100838.19;5069618;28;20474;-67
2021/11/01 12:21:26;;;;;;;972.20;915.38;;;24.20;90.30;;;23.54;100.00;100837.56;5069974;28;20511;-66
2021/11/01 12:24:02;;;;;;;974.92;917.85;;;24.30;90.00;;;23.64;100.00;100850.69;5069962;28;20418;-68
2021/11/01 12:26:34;;;;;;;981.95;925.13;;;24.40;90.20;;;23.44;100.00;100846.53;5070163;28;20774;-65
2021/11/01 12:29:14;;;;;;;971.80;915.25;;;24.30;88.50;;;23.36;100.00;100843.63;5069194;28;20968;-66
2021/11/01 12:31:48;;;;;;;974.13;917.22;;;24.10;90.00;;;23.55;100.00;100842.72;5069857;28;20423;-67
2021/11/01 12:34:19;;;;;;;972.53;915.72;;;24.30;89.70;;;23.73;100.00;100846.47;5068074;28;20478;-66
2021/11/01 12:36:57;;;;;;;978.20;921.10;;;24.40;90.20;;;23.98;100.00;100840.41;5070013;28;20870;-63
2021/11/01 12:39:34;;;;;;;985.08;927.72;;;24.50;89.30;;;24.09;100.00;100844.06;5069357;28;20482;-66
2021/11/01 12:42:33;;;;;;;986.40;929.05;;;24.70;88.70;;;23.99;100.00;100836.44;5069478;28;20408;-65
2021/11/01 12:48:22;;;;;;;984.38;927.28;;;24.70;88.20;;;23.71;100.00;100828.69;5069727;28;20411;-63
2021/11/01 12:57:04;;;;;;;974.60;917.90;;;24.20;88.10;;;23.08;100.00;100836.94;5069829;28;20395;-64
2021/11/01 12:59:42;;;;;;;965.38;909.05;;;24.00;89.80;;;22.96;100.00;100840.72;5069053;28;20411;-66
2021/11/01 13:02:17;;;;;;;959.90;903.63;;;23.80;90.00;;;22.95;100.00;100827.31;5069332;28;20874;-64
2021/11/01 13:04:50;;;;;;;963.45;907.17;;;23.80;90.20;;;22.89;100.00;100823.28;5068945;28;20465;-65
2021/11/01 13:07:44;;;;;;;955.83;899.67;;;23.80;90.50;;;22.90;100.00;100827.63;5069362;28;20761;-64
2021/11/01 13:10:21;;;;;;;956.20;900.13;;;23.70;90.30;;;22.84;100.00;100825.19;5068739;28;20502;-64
2021/11/01 13:18:27;;;;;;;956.60;900.13;;;23.50;90.40;;;22.71;100.00;100820.25;5069394;28;20773;-65
2021/11/01 13:21:07;;;;;;;948.03;892.22;;;23.50;90.50;;;22.67;100.00;100822.19;5068979;28;20407;-64
2021/11/01 13:23:38;;;;;;;942.65;886.75;;;23.50;90.50;;;22.58;100.00;100816.09;5069474;28;20411;-67
2021/11/01 13:26:24;;;;;;;946.37;890.37;;;23.40;90.70;;;22.56;100.00;100810.16;5069311;28;20407;-68
2021/11/01 13:29:23;;;;;;;946.05;890.00;;;23.40;91.10;;;22.51;100.00;100805.75;5068786;28;20416;-66
2021/11/01 13:34:57;;;;;;;943.47;886.90;;;23.20;91.00;;;22.31;100.00;100809.78;5069354;28;20445;-67
2021/11/01 13:37:40;;;;;;;943.20;887.17;;;23.20;91.30;;;22.37;100.00;100805.56;5069237;28;20414;-66
2021/11/01 13:40:15;;;;;;;938.38;882.33;;;23.20;91.70;;;22.40;100.00;100804.81;5068601;28;20416;-69
2021/11/01 13:43:01;;;;;;;937.42;880.92;;;23.20;91.80;;;22.48;100.00;100801.00;5069001;28;20938;-65
2021/11/01 13:45:35;;;;;;;938.35;882.67;;;23.30;92.10;;;22.33;100.00;100801.94;5069480;28;20418;-64
2021/11/01 13:48:06;;;;;;;943.90;887.60;;;23.20;91.90;;;22.16;100.00;100805.97;5068934;28;20415;-64
2021/11/01 13:50:41;;;;;;;936.40;880.58;;;23.10;91.80;;;22.08;100.00;100808.97;5068545;28;20495;-67
2021/11/01 13:53:17;;;;;;;939.95;884.20;;;22.90;92.40;;;22.15;100.00;100804.41;5068502;28;20557;-66
2021/11/01 13:55:49;;;;;;;939.27;883.37;;;23.00;92.50;;;22.20;100.00;100808.78;5069151;28;20882;-66
2021/11/01 13:58:36;;;;;;;941.70;885.73;;;23.00;92.40;;;22.05;100.00;100809.72;5069188;28;20514;-67